Terminal Aerodrome Forecast
Issued by NWS

Home | Current Version | Previous Version | Text Only | Print | Product List | Glossary On
Versions: 1 2 3 4 5 6 7 8 9 10 11 12 13 14 15 16 17 18
000
FTUS46 KLOX 032331
TAFOXR
TAF
KOXR 032331Z 0400/0424 25013KT P6SM BKN200
     FM040300 26007KT P6SM BKN200
     FM040700 VRB03KT P6SM SCT200
     FM041100 VRB03KT P6SM BKN010
     FM041600 VRB03KT P6SM SCT150
     FM041900 26012KT P6SM SCT150=

USA.gov is the U.S. government's official web portal to all federal, state and local government web resources and services.